createdAt,value
2018-11-05T00:00:47.168Z,15.27
2018-11-05T00:02:55.068Z,15.25
2018-11-05T00:05:39.222Z,15.25
2018-11-05T00:07:43.628Z,15.25
2018-11-05T00:09:51.318Z,15.26
2018-11-05T00:11:59.128Z,15.26
2018-11-05T00:14:07.473Z,15.25
2018-11-05T00:16:15.406Z,15.22
2018-11-05T00:18:23.147Z,15.18
2018-11-05T00:20:31.134Z,15.16
2018-11-05T00:22:40.219Z,15.16
2018-11-05T00:24:48.116Z,15.10
2018-11-05T00:26:55.837Z,15.12
2018-11-05T00:29:03.529Z,15.09
2018-11-05T00:31:11.283Z,15.07
2018-11-05T00:33:18.973Z,15.06
2018-11-05T00:35:26.887Z,15.04
2018-11-05T00:37:34.652Z,15.02
2018-11-05T00:39:42.364Z,15.02
2018-11-05T00:41:50.223Z,14.97
2018-11-05T00:43:57.955Z,14.93
2018-11-05T00:46:05.788Z,14.87
2018-11-05T00:48:13.551Z,14.81
2018-11-05T00:50:21.269Z,14.78
2018-11-05T00:52:29.343Z,14.73
2018-11-05T00:54:37.718Z,14.71
2018-11-05T00:56:46.417Z,14.66
2018-11-05T00:58:54.353Z,14.62
2018-11-05T01:01:02.194Z,14.60
2018-11-05T01:03:12.464Z,14.57
2018-11-05T01:05:20.165Z,14.55
2018-11-05T01:07:28.209Z,14.53
2018-11-05T01:09:36.037Z,14.53
2018-11-05T01:11:44.361Z,14.54
2018-11-05T01:13:56.325Z,14.56
2018-11-05T01:16:11.547Z,14.56
2018-11-05T01:18:19.247Z,14.58
2018-11-05T01:20:27.047Z,14.57
2018-11-05T01:22:35.138Z,14.58
2018-11-05T01:24:42.920Z,14.60
2018-11-05T01:26:50.631Z,14.61
2018-11-05T01:28:58.486Z,14.60
2018-11-05T01:31:06.686Z,14.60
2018-11-05T01:33:14.381Z,14.59
2018-11-05T01:35:22.618Z,14.59
2018-11-05T01:37:30.547Z,14.60
2018-11-05T01:39:38.326Z,14.59
2018-11-05T01:41:46.092Z,14.57
2018-11-05T01:43:53.907Z,14.54
2018-11-05T01:46:01.735Z,14.51
2018-11-05T01:48:10.807Z,14.48
2018-11-05T01:50:18.733Z,14.43
2018-11-05T01:52:26.900Z,14.36
2018-11-05T01:54:34.656Z,14.30
2018-11-05T01:56:42.521Z,14.26
2018-11-05T01:58:51.077Z,14.25
2018-11-05T02:00:59.292Z,14.25
2018-11-05T02:03:07.502Z,14.23
2018-11-05T02:05:15.142Z,14.23
2018-11-05T02:07:23.033Z,14.21
2018-11-05T02:09:30.762Z,14.18
2018-11-05T02:11:39.115Z,14.16
2018-11-05T02:13:47.004Z,14.13
2018-11-05T02:15:54.991Z,14.10
2018-11-05T02:18:02.745Z,14.07
2018-11-05T02:20:10.625Z,14.06
2018-11-05T02:22:18.382Z,14.05
2018-11-05T02:24:26.197Z,14.04
2018-11-05T02:26:34.095Z,14.03
2018-11-05T02:28:41.839Z,14.03
2018-11-05T02:30:49.547Z,14.04
2018-11-05T02:32:57.380Z,14.05
2018-11-05T02:35:05.184Z,14.07
2018-11-05T02:37:13.445Z,14.09
2018-11-05T02:39:21.288Z,14.09
2018-11-05T02:41:29.145Z,14.09
2018-11-05T02:43:36.964Z,14.08
2018-11-05T02:45:44.737Z,14.06
2018-11-05T02:47:52.450Z,14.04
2018-11-05T02:50:00.429Z,13.97
2018-11-05T02:52:08.509Z,13.94
2018-11-05T02:54:16.372Z,13.97
2018-11-05T02:56:24.177Z,14.00
2018-11-05T02:58:32.354Z,14.03
2018-11-05T03:00:41.053Z,14.06
2018-11-05T03:02:48.953Z,14.08
2018-11-05T03:04:56.666Z,14.11
2018-11-05T03:07:04.533Z,14.10
2018-11-05T03:09:13.235Z,14.10
2018-11-05T03:11:20.952Z,14.06
2018-11-05T03:13:28.654Z,14.03
2018-11-05T03:15:36.595Z,14.02
2018-11-05T03:17:44.295Z,14.01
2018-11-05T03:19:51.980Z,13.96
2018-11-05T03:21:59.736Z,13.96
2018-11-05T03:24:07.531Z,13.94
2018-11-05T03:26:15.352Z,13.93
2018-11-05T03:28:23.465Z,13.90
2018-11-05T03:30:31.501Z,13.90
2018-11-05T03:32:39.398Z,13.90
2018-11-05T03:34:47.222Z,13.88
2018-11-05T03:36:57.080Z,13.88
2018-11-05T03:39:05.401Z,13.85
2018-11-05T03:41:13.135Z,13.82
2018-11-05T03:43:21.343Z,13.81
2018-11-05T03:45:29.054Z,13.81
2018-11-05T03:47:36.788Z,13.78
2018-11-05T03:49:44.758Z,13.70
2018-11-05T03:51:52.378Z,13.61
2018-11-05T03:54:00.131Z,13.52
2018-11-05T03:56:08.874Z,13.45
2018-11-05T03:58:16.633Z,13.43
2018-11-05T04:00:24.425Z,13.47
2018-11-05T04:02:32.883Z,13.51
2018-11-05T04:04:40.786Z,13.55
2018-11-05T04:06:48.604Z,13.59
2018-11-05T04:08:56.401Z,13.63
2018-11-05T04:11:04.152Z,13.66
2018-11-05T04:13:11.892Z,13.67
2018-11-05T04:15:19.619Z,13.67
2018-11-05T04:17:27.360Z,13.67
2018-11-05T04:19:35.046Z,13.65
2018-11-05T04:21:46.386Z,13.54
2018-11-05T04:23:54.649Z,13.40
2018-11-05T04:26:02.380Z,13.25
2018-11-05T04:28:10.125Z,13.14
2018-11-05T04:30:17.976Z,13.09
2018-11-05T04:32:26.754Z,13.03
2018-11-05T04:34:34.445Z,12.98
2018-11-05T04:36:42.272Z,12.98
2018-11-05T04:38:50.128Z,12.97
2018-11-05T04:40:57.791Z,12.93
2018-11-05T04:43:05.536Z,12.88
2018-11-05T04:45:14.234Z,12.84
2018-11-05T04:47:22.032Z,12.82
2018-11-05T04:49:29.766Z,12.82
2018-11-05T04:51:37.511Z,12.80
2018-11-05T04:53:45.243Z,12.83
2018-11-05T04:55:53.050Z,12.91
2018-11-05T04:58:00.745Z,12.95
2018-11-05T05:00:16.624Z,12.93
2018-11-05T05:02:24.372Z,12.92
2018-11-05T05:04:32.769Z,12.93
2018-11-05T05:06:40.715Z,12.92
2018-11-05T05:08:48.585Z,12.90
2018-11-05T05:10:56.536Z,12.91
2018-11-05T05:13:04.235Z,12.93
2018-11-05T05:15:12.438Z,12.97
2018-11-05T05:17:20.427Z,13.02
2018-11-05T05:19:28.177Z,13.04
2018-11-05T05:21:36.015Z,13.07
2018-11-05T05:23:43.758Z,13.10
2018-11-05T05:25:51.569Z,13.12
2018-11-05T05:27:59.275Z,13.15
2018-11-05T05:30:19.287Z,13.17
2018-11-05T05:32:27.473Z,13.13
2018-11-05T05:34:35.198Z,13.12
2018-11-05T05:36:42.931Z,13.12
2018-11-05T05:38:50.849Z,13.17
2018-11-05T05:40:58.672Z,13.21
2018-11-05T05:43:06.348Z,13.26
2018-11-05T05:45:14.311Z,13.27
2018-11-05T05:47:22.170Z,13.25
2018-11-05T05:49:30.127Z,13.22
2018-11-05T05:51:37.895Z,13.23
2018-11-05T05:53:46.185Z,13.26
2018-11-05T05:55:53.912Z,13.28
2018-11-05T05:58:01.663Z,13.31
2018-11-05T06:00:14.310Z,13.35
2018-11-05T06:02:22.052Z,13.34
2018-11-05T06:04:29.814Z,13.29
2018-11-05T06:06:38.517Z,13.27
2018-11-05T06:08:46.324Z,13.26
2018-11-05T06:10:54.217Z,13.26
2018-11-05T06:13:01.930Z,13.26
2018-11-05T06:15:12.803Z,13.25
2018-11-05T06:17:20.519Z,13.22
2018-11-05T06:19:28.312Z,13.19
2018-11-05T06:21:37.109Z,13.15
2018-11-05T06:23:44.806Z,13.16
2018-11-05T06:25:52.521Z,13.19
2018-11-05T06:28:00.377Z,13.22
2018-11-05T06:30:12.725Z,13.25
2018-11-05T06:32:20.482Z,13.23
2018-11-05T06:34:28.228Z,13.21
2018-11-05T06:36:35.942Z,13.20
2018-11-05T06:38:43.685Z,13.19
2018-11-05T06:40:51.546Z,13.18
2018-11-05T06:42:59.298Z,13.18
2018-11-05T06:47:52.940Z,13.19
2018-11-05T06:50:01.421Z,13.21
2018-11-05T06:52:09.123Z,13.21
2018-11-05T06:54:16.961Z,13.21
2018-11-05T06:58:34.602Z,13.29
2018-11-05T07:00:42.337Z,13.28
2018-11-05T07:02:50.125Z,13.27
2018-11-05T07:05:00.166Z,13.27
2018-11-05T07:07:05.061Z,13.25
2018-11-05T07:09:13.839Z,13.24
2018-11-05T07:11:21.668Z,13.25
2018-11-05T07:13:29.387Z,13.22
2018-11-05T07:15:37.298Z,13.22
2018-11-05T07:17:46.200Z,13.25
2018-11-05T07:19:54.373Z,13.29
2018-11-05T07:22:02.143Z,13.29
2018-11-05T07:24:11.007Z,13.31
2018-11-05T07:26:18.822Z,13.31
2018-11-05T07:28:26.530Z,13.31
2018-11-05T07:30:34.505Z,13.31
2018-11-05T07:32:42.806Z,13.32
2018-11-05T07:34:50.594Z,13.30
2018-11-05T07:36:58.327Z,13.26
2018-11-05T07:39:12.228Z,13.22
2018-11-05T07:41:20.829Z,13.20
2018-11-05T07:43:28.512Z,13.18
2018-11-05T07:45:36.209Z,13.21
2018-11-05T07:47:44.907Z,13.25
2018-11-05T07:49:52.714Z,13.25
2018-11-05T07:52:00.447Z,13.20
2018-11-05T07:54:08.304Z,13.18
2018-11-05T07:56:16.245Z,13.19
2018-11-05T07:58:23.901Z,13.22
2018-11-05T08:00:49.894Z,13.21
2018-11-05T08:02:59.192Z,13.21
2018-11-05T08:05:07.245Z,13.23
2018-11-05T08:07:19.353Z,13.23
2018-11-05T08:09:27.065Z,13.25
2018-11-05T08:11:34.841Z,13.30
2018-11-05T08:13:42.670Z,13.35
2018-11-05T08:15:50.386Z,13.39
2018-11-05T08:17:58.109Z,13.41
2018-11-05T08:20:07.179Z,13.44
2018-11-05T08:22:15.122Z,13.50
2018-11-05T08:24:23.120Z,13.55
2018-11-05T08:26:30.872Z,13.59
2018-11-05T08:28:38.664Z,13.62
2018-11-05T08:30:46.718Z,13.67
2018-11-05T08:35:41.225Z,13.73
2018-11-05T08:37:49.405Z,13.75
2018-11-05T08:39:57.249Z,13.78
2018-11-05T08:42:06.227Z,13.81
2018-11-05T08:44:14.021Z,13.82
2018-11-05T08:46:22.780Z,13.83
2018-11-05T08:48:30.651Z,13.81
2018-11-05T08:50:38.551Z,13.83
2018-11-05T08:52:46.185Z,13.85
2018-11-05T08:54:56.387Z,13.88
2018-11-05T08:57:04.469Z,13.90
2018-11-05T08:59:13.735Z,13.91
2018-11-05T09:01:24.268Z,13.90
2018-11-05T09:03:32.124Z,13.93
2018-11-05T09:05:39.954Z,13.94
2018-11-05T09:07:49.730Z,13.96
2018-11-05T09:09:58.603Z,13.99
2018-11-05T09:12:06.636Z,14.04
2018-11-05T09:14:14.381Z,14.11
2018-11-05T09:16:22.414Z,14.12
2018-11-05T09:18:30.174Z,14.13
2018-11-05T09:20:38.253Z,14.13
2018-11-05T09:22:46.507Z,14.15
2018-11-05T09:24:54.337Z,14.16
2018-11-05T09:27:02.029Z,14.19
2018-11-05T09:29:09.750Z,14.17
2018-11-05T09:31:17.508Z,14.18
2018-11-05T09:33:25.309Z,14.19
2018-11-05T09:35:34.181Z,14.22
2018-11-05T09:37:47.605Z,14.21
2018-11-05T09:39:53.517Z,14.22
2018-11-05T09:42:01.331Z,14.23
2018-11-05T09:44:09.532Z,14.22
2018-11-05T09:46:17.339Z,14.28
2018-11-05T09:48:49.212Z,14.32
2018-11-05T09:53:30.208Z,14.40
2018-11-05T09:55:51.281Z,14.44
2018-11-05T09:58:00.116Z,14.52
2018-11-05T10:00:32.029Z,14.60
2018-11-05T10:02:58.916Z,14.64
2018-11-05T10:05:12.026Z,14.67
2018-11-05T10:07:26.127Z,14.68
2018-11-05T10:09:37.677Z,14.66
2018-11-05T10:11:55.994Z,14.65
2018-11-05T10:14:17.167Z,14.65
2018-11-05T10:16:23.280Z,14.68
2018-11-05T10:18:33.712Z,14.70
2018-11-05T10:20:42.561Z,14.68
2018-11-05T10:23:00.513Z,14.70
2018-11-05T10:25:10.555Z,14.75
2018-11-05T10:27:22.182Z,14.80
2018-11-05T10:29:34.258Z,14.87
2018-11-05T10:31:46.998Z,14.93
2018-11-05T10:34:10.995Z,14.98
2018-11-05T10:36:42.403Z,15.05
2018-11-05T10:38:59.054Z,15.07
2018-11-05T10:41:11.927Z,15.10
2018-11-05T10:43:22.851Z,15.11
2018-11-05T10:45:46.713Z,15.11
2018-11-05T10:48:03.101Z,15.08
2018-11-05T10:50:29.618Z,15.06
2018-11-05T10:52:45.027Z,15.03
2018-11-05T10:55:11.963Z,14.99
2018-11-05T10:57:56.251Z,15.01
2018-11-05T11:00:40.012Z,14.98
2018-11-05T11:03:24.012Z,15.03
2018-11-05T11:05:34.886Z,15.08
2018-11-05T11:07:53.219Z,15.08
2018-11-05T11:10:48.112Z,15.06
2018-11-05T11:12:39.437Z,15.04
2018-11-05T11:14:54.623Z,15.03
2018-11-05T11:17:07.415Z,15.05
2018-11-05T11:19:16.999Z,15.05
2018-11-05T11:21:26.557Z,15.06
2018-11-05T11:23:42.177Z,15.08
2018-11-05T11:25:50.614Z,15.13
2018-11-05T11:27:59.368Z,15.20
2018-11-05T11:30:07.757Z,15.22
2018-11-05T11:32:15.493Z,15.24
2018-11-05T11:34:23.309Z,15.27
2018-11-05T11:36:32.150Z,15.34
2018-11-05T11:38:40.002Z,15.38
2018-11-05T11:42:55.455Z,15.41
2018-11-05T11:45:03.325Z,15.42
2018-11-05T11:47:10.932Z,15.46
2018-11-05T11:49:19.828Z,15.49
2018-11-05T11:51:27.605Z,15.53
2018-11-05T11:53:36.177Z,15.56
2018-11-05T11:55:43.914Z,15.60
2018-11-05T11:57:51.776Z,15.65
2018-11-05T11:59:59.564Z,15.71
2018-11-05T12:04:10.145Z,15.82
2018-11-05T12:06:17.901Z,15.81
2018-11-05T12:08:28.123Z,15.80
2018-11-05T12:10:36.499Z,15.77
2018-11-05T12:12:44.565Z,15.76
2018-11-05T12:14:52.408Z,15.77
2018-11-05T12:17:00.090Z,15.77
2018-11-05T12:19:08.562Z,15.78
2018-11-05T12:21:16.297Z,15.77
2018-11-05T12:23:24.047Z,15.77
2018-11-05T12:25:31.801Z,15.79
2018-11-05T12:27:39.634Z,15.77
2018-11-05T12:29:47.400Z,15.73
2018-11-05T12:31:55.118Z,15.70
2018-11-05T12:34:02.829Z,15.70
2018-11-05T12:36:10.818Z,15.71
2018-11-05T12:38:18.570Z,15.72
2018-11-05T12:40:26.793Z,15.75
2018-11-05T12:42:34.520Z,15.79
2018-11-05T12:44:42.488Z,15.84
2018-11-05T12:46:50.208Z,15.90
2018-11-05T12:48:57.938Z,15.96
2018-11-05T12:51:06.560Z,16.04
2018-11-05T12:53:38.083Z,16.12
2018-11-05T12:55:52.952Z,16.18
2018-11-05T12:58:05.583Z,16.25
2018-11-05T13:00:25.637Z,16.29
2018-11-05T13:02:37.993Z,16.36
2018-11-05T13:04:55.625Z,16.38
2018-11-05T13:07:10.916Z,16.41
2018-11-05T13:09:20.495Z,16.42
2018-11-05T13:11:30.658Z,16.46
2018-11-05T13:14:03.859Z,16.51
2018-11-05T13:16:20.495Z,16.59
2018-11-05T13:18:32.700Z,16.63
2018-11-05T13:20:45.949Z,16.68
2018-11-05T13:23:06.002Z,16.70
2018-11-05T13:25:13.617Z,16.73
2018-11-05T13:27:24.368Z,16.79
2018-11-05T13:29:43.596Z,16.82
2018-11-05T13:31:54.683Z,16.85
2018-11-05T13:34:02.374Z,16.91
2018-11-05T13:36:11.214Z,16.96
2018-11-05T13:38:19.422Z,16.99
2018-11-05T13:40:26.874Z,17.01
2018-11-05T13:42:34.594Z,17.04
2018-11-05T13:44:42.428Z,17.06
2018-11-05T13:46:50.637Z,17.08
2018-11-05T13:49:00.205Z,17.07
2018-11-05T13:51:07.627Z,17.05
2018-11-05T13:53:15.730Z,17.06
2018-11-05T13:55:24.106Z,17.08
2018-11-05T13:57:32.188Z,17.10
2018-11-05T13:59:40.224Z,17.13
2018-11-05T14:01:50.307Z,17.15
2018-11-05T14:03:58.080Z,17.15
2018-11-05T14:06:05.926Z,17.16
2018-11-05T14:08:14.114Z,17.15
2018-11-05T14:10:23.450Z,17.13
2018-11-05T14:12:31.625Z,17.14
2018-11-05T14:14:39.383Z,17.15
2018-11-05T14:16:47.387Z,17.14
2018-11-05T14:18:55.116Z,17.09
2018-11-05T14:21:03.283Z,17.02
2018-11-05T14:23:11.115Z,16.94
2018-11-05T14:27:31.455Z,16.81
2018-11-05T14:29:39.578Z,16.75
2018-11-05T14:31:46.904Z,16.68
2018-11-05T14:33:54.695Z,16.61
2018-11-05T14:36:02.480Z,16.54
2018-11-05T14:38:10.233Z,16.46
2018-11-05T14:40:18.951Z,16.39
2018-11-05T14:42:26.741Z,16.31
2018-11-05T14:44:34.538Z,16.20
2018-11-05T14:46:42.580Z,16.10
2018-11-05T14:48:50.344Z,16.02
2018-11-05T14:50:58.410Z,15.92
2018-11-05T14:53:06.203Z,15.83
2018-11-05T14:55:16.287Z,15.75
2018-11-05T14:57:24.375Z,15.65
2018-11-05T14:59:33.225Z,15.58
2018-11-05T15:01:41.275Z,15.54
2018-11-05T15:03:49.041Z,15.49
2018-11-05T15:05:57.168Z,15.44
2018-11-05T15:08:04.998Z,15.36
2018-11-05T15:10:15.436Z,15.31
2018-11-05T15:12:23.268Z,15.24
2018-11-05T15:14:30.691Z,15.21
2018-11-05T15:16:38.434Z,15.19
2018-11-05T15:18:46.446Z,15.15
2018-11-05T15:20:54.141Z,15.10
2018-11-05T15:23:01.839Z,15.06
2018-11-05T15:25:10.245Z,15.01
2018-11-05T15:27:18.002Z,14.98
2018-11-05T15:29:26.103Z,14.95
2018-11-05T15:31:33.902Z,14.91
2018-11-05T15:33:41.791Z,14.89
2018-11-05T15:35:49.524Z,14.88
2018-11-05T15:37:58.452Z,14.83
2018-11-05T15:40:06.529Z,14.78
2018-11-05T15:42:15.043Z,14.74
2018-11-05T15:44:23.119Z,14.75
2018-11-05T15:46:31.159Z,14.75
2018-11-05T15:48:41.100Z,14.71
2018-11-05T15:50:48.933Z,14.69
2018-11-05T15:52:57.043Z,14.66
2018-11-05T15:55:07.338Z,14.64
2018-11-05T15:57:17.499Z,14.63
2018-11-05T15:59:25.340Z,14.58
2018-11-05T16:01:33.232Z,14.56
2018-11-05T16:03:41.104Z,14.54
2018-11-05T16:05:48.911Z,14.50
2018-11-05T16:07:57.957Z,14.45
2018-11-05T16:10:07.899Z,14.42
2018-11-05T16:12:15.707Z,14.34
2018-11-05T16:14:23.521Z,14.28
2018-11-05T16:16:30.087Z,14.21
2018-11-05T16:18:35.073Z,14.16
2018-11-05T16:20:43.102Z,14.15
2018-11-05T16:22:51.675Z,14.15
2018-11-05T16:25:00.887Z,14.13
2018-11-05T16:27:09.181Z,14.10
2018-11-05T16:29:16.974Z,14.09
2018-11-05T16:31:24.908Z,14.10
2018-11-05T16:33:32.791Z,14.12
2018-11-05T16:35:40.981Z,14.13
2018-11-05T16:37:49.006Z,14.12
2018-11-05T16:39:57.089Z,14.15
2018-11-05T16:42:04.770Z,14.15
2018-11-05T16:44:12.194Z,14.16
2018-11-05T16:46:17.110Z,14.16
2018-11-05T16:48:25.165Z,14.16
2018-11-05T16:50:32.918Z,14.17
2018-11-05T16:52:42.015Z,14.17
2018-11-05T16:54:49.965Z,14.15
2018-11-05T16:56:57.747Z,14.11
2018-11-05T16:59:05.955Z,14.10
2018-11-05T17:01:13.932Z,14.09
2018-11-05T17:03:21.524Z,14.08
2018-11-05T17:05:32.172Z,14.09
2018-11-05T17:07:40.090Z,14.11
2018-11-05T17:09:48.269Z,14.15
2018-11-05T17:11:56.372Z,14.16
2018-11-05T17:14:04.243Z,14.15
2018-11-05T17:16:13.106Z,14.09
2018-11-05T17:18:20.891Z,14.04
2018-11-05T17:20:29.296Z,14.02
2018-11-05T17:22:37.201Z,14.04
2018-11-05T17:24:47.614Z,14.02
2018-11-05T17:26:55.774Z,13.98
2018-11-05T17:29:03.594Z,13.92
2018-11-05T17:31:11.398Z,13.89
2018-11-05T17:33:21.712Z,13.87
2018-11-05T17:35:29.515Z,13.85
2018-11-05T17:37:37.245Z,13.83
2018-11-05T17:39:45.044Z,13.83
2018-11-05T17:41:52.892Z,13.83
2018-11-05T17:44:10.695Z,13.83
2018-11-05T17:46:18.711Z,13.79
2018-11-05T17:48:26.888Z,13.74
2018-11-05T17:50:34.700Z,13.73
2018-11-05T17:52:42.923Z,13.75
2018-11-05T17:54:50.738Z,13.77
2018-11-05T17:56:58.696Z,13.78
2018-11-05T17:59:07.916Z,13.77
2018-11-05T18:01:15.955Z,13.78
2018-11-05T18:03:24.704Z,13.80
2018-11-05T18:05:32.576Z,13.82
2018-11-05T18:07:43.076Z,13.81
2018-11-05T18:09:50.984Z,13.81
2018-11-05T18:11:58.899Z,13.80
2018-11-05T18:14:06.776Z,13.79
2018-11-05T18:16:14.839Z,13.78
2018-11-05T18:18:22.686Z,13.76
2018-11-05T18:20:31.219Z,13.74
2018-11-05T18:22:39.110Z,13.75
2018-11-05T18:24:46.917Z,13.72
2018-11-05T18:26:54.676Z,13.68
2018-11-05T18:29:04.313Z,13.66
2018-11-05T18:31:12.418Z,13.71
2018-11-05T18:33:20.614Z,13.76
2018-11-05T18:35:28.429Z,13.79
2018-11-05T18:37:36.353Z,13.80
2018-11-05T18:39:45.235Z,13.84
2018-11-05T18:41:53.906Z,13.86
2018-11-05T18:44:00.009Z,13.85
2018-11-05T18:46:05.196Z,13.83
2018-11-05T18:48:13.158Z,13.84
2018-11-05T18:50:22.083Z,13.86
2018-11-05T18:52:32.545Z,13.90
2018-11-05T18:54:41.431Z,13.86
2018-11-05T18:56:49.231Z,13.88
2018-11-05T18:58:57.687Z,13.88
2018-11-05T19:01:05.553Z,13.87
2018-11-05T19:03:14.445Z,13.84
2018-11-05T19:05:23.600Z,13.80
2018-11-05T19:07:31.635Z,13.78
2018-11-05T19:09:39.564Z,13.80
2018-11-05T19:11:47.281Z,13.82
2018-11-05T19:13:55.093Z,13.80
2018-11-05T19:16:03.079Z,13.80
2018-11-05T19:18:11.515Z,13.79
2018-11-05T19:20:19.595Z,13.79
2018-11-05T19:22:27.445Z,13.80
2018-11-05T19:24:35.821Z,13.80
2018-11-05T19:26:43.562Z,13.80
2018-11-05T19:28:55.271Z,13.79
2018-11-05T19:31:03.095Z,13.75
2018-11-05T19:33:11.523Z,13.68
2018-11-05T19:35:22.602Z,13.61
2018-11-05T19:37:30.670Z,13.57
2018-11-05T19:39:38.592Z,13.59
2018-11-05T19:41:46.884Z,13.61
2018-11-05T19:43:53.507Z,13.61
2018-11-05T19:45:58.490Z,13.57
2018-11-05T19:48:06.560Z,13.58
2018-11-05T19:50:30.069Z,13.58
2018-11-05T19:52:43.934Z,13.60
2018-11-05T19:54:57.767Z,13.63
2018-11-05T19:57:28.595Z,13.66
2018-11-05T19:59:51.404Z,13.66
2018-11-05T20:02:01.877Z,13.66
2018-11-05T20:04:13.346Z,13.64
2018-11-05T20:06:21.242Z,13.63
2018-11-05T20:08:34.069Z,13.61
2018-11-05T20:10:59.648Z,13.57
2018-11-05T20:15:56.976Z,13.51
2018-11-05T20:18:04.779Z,13.44
2018-11-05T20:20:17.984Z,13.37
2018-11-05T20:22:26.116Z,13.35
2018-11-05T20:24:45.520Z,13.35
2018-11-05T20:26:54.897Z,13.37
2018-11-05T20:29:22.953Z,13.36
2018-11-05T20:31:41.081Z,13.34
2018-11-05T20:34:03.901Z,13.37
2018-11-05T20:36:16.999Z,13.40
2018-11-05T20:38:38.417Z,13.44
2018-11-05T20:40:50.214Z,13.49
2018-11-05T20:43:08.863Z,13.51
2018-11-05T20:45:16.074Z,13.54
2018-11-05T20:47:21.821Z,13.54
2018-11-05T20:49:30.614Z,13.54
2018-11-05T20:51:41.864Z,13.56
2018-11-05T20:53:49.800Z,13.58
2018-11-05T20:55:57.650Z,13.59
2018-11-05T20:58:05.429Z,13.58
2018-11-05T21:00:17.084Z,13.60
2018-11-05T21:02:25.022Z,13.57
2018-11-05T21:04:32.823Z,13.53
2018-11-05T21:06:44.163Z,13.50
2018-11-05T21:09:06.899Z,13.43
2018-11-05T21:13:32.499Z,13.29
2018-11-05T21:15:45.221Z,13.26
2018-11-05T21:18:02.088Z,13.26
2018-11-05T21:20:24.844Z,13.23
2018-11-05T21:22:42.191Z,13.20
2018-11-05T21:24:51.725Z,13.20
2018-11-05T21:27:02.114Z,13.21
2018-11-05T21:29:22.952Z,13.22
2018-11-05T21:33:53.367Z,13.26
2018-11-05T21:36:03.288Z,13.29
2018-11-05T21:38:13.007Z,13.31
2018-11-05T21:40:37.939Z,13.32
2018-11-05T21:42:50.891Z,13.33
2018-11-05T21:44:59.470Z,13.31
2018-11-05T21:47:12.730Z,13.30
2018-11-05T21:49:52.094Z,13.32
2018-11-05T21:52:21.236Z,13.35
2018-11-05T21:54:38.011Z,13.36
2018-11-05T21:56:47.428Z,13.37
2018-11-05T21:59:11.946Z,13.32
2018-11-05T22:01:21.301Z,13.27
2018-11-05T22:03:40.670Z,13.23
2018-11-05T22:06:13.681Z,13.25
2018-11-05T22:08:32.771Z,13.28
2018-11-05T22:10:44.738Z,13.30
2018-11-05T22:13:00.178Z,13.30
2018-11-05T22:15:17.263Z,13.27
2018-11-05T22:17:26.768Z,13.25
2018-11-05T22:19:40.352Z,13.26
2018-11-05T22:21:55.085Z,13.25
2018-11-05T22:24:03.076Z,13.27
2018-11-05T22:26:13.871Z,13.28
2018-11-05T22:28:26.229Z,13.28
2018-11-05T22:30:43.151Z,13.29
2018-11-05T22:33:00.026Z,13.27
2018-11-05T22:35:22.756Z,13.18
2018-11-05T22:37:46.455Z,13.07
2018-11-05T22:43:05.111Z,13.01
2018-11-05T22:45:11.182Z,13.01
2018-11-05T22:47:21.372Z,12.97
2018-11-05T22:49:44.977Z,12.92
2018-11-05T22:51:52.685Z,12.93
2018-11-05T22:54:00.768Z,12.94
2018-11-05T22:56:09.861Z,12.94
2018-11-05T22:58:17.833Z,12.93
2018-11-05T23:00:42.524Z,12.95
2018-11-05T23:03:07.180Z,12.96
2018-11-05T23:05:15.517Z,12.97
2018-11-05T23:07:23.264Z,12.96
2018-11-05T23:09:31.455Z,12.89
2018-11-05T23:11:39.283Z,12.81
2018-11-05T23:13:47.078Z,12.76
2018-11-05T23:15:54.958Z,12.72
2018-11-05T23:18:02.940Z,12.68
2018-11-05T23:20:11.271Z,12.70
2018-11-05T23:22:18.977Z,12.71
2018-11-05T23:24:26.983Z,12.71
2018-11-05T23:26:35.381Z,12.73
2018-11-05T23:28:43.436Z,12.71
2018-11-05T23:30:51.158Z,12.66
2018-11-05T23:32:58.888Z,12.63
2018-11-05T23:35:07.301Z,12.60
2018-11-05T23:37:17.513Z,12.54
2018-11-05T23:39:25.256Z,12.55
2018-11-05T23:41:33.333Z,12.57
2018-11-05T23:43:41.212Z,12.57
2018-11-05T23:45:48.906Z,12.54
2018-11-05T23:47:57.044Z,12.54
2018-11-05T23:50:05.058Z,12.53
2018-11-05T23:52:12.895Z,12.52
2018-11-05T23:54:20.694Z,12.48
2018-11-05T23:56:28.429Z,12.43
2018-11-05T23:58:36.187Z,12.34
